createdAt,value
2022-12-04T00:02:08.661Z,8.88
2022-12-04T00:04:35.262Z,8.10
2022-12-04T00:07:02.460Z,9.05
2022-12-04T00:09:29.047Z,8.73
2022-12-04T00:11:55.666Z,9.52
2022-12-04T00:14:22.262Z,9.32
2022-12-04T00:16:50.497Z,9.43
2022-12-04T00:19:17.419Z,9.57
2022-12-04T00:21:45.305Z,9.20
2022-12-04T00:24:12.264Z,9.18
2022-12-04T00:26:38.975Z,8.88
2022-12-04T00:29:05.573Z,8.77
2022-12-04T00:31:32.288Z,9.40
2022-12-04T00:34:00.339Z,9.32
2022-12-04T00:36:29.358Z,9.52
2022-12-04T00:38:56.546Z,9.20
2022-12-04T00:41:25.812Z,9.60
2022-12-04T00:43:53.254Z,8.98
2022-12-04T00:46:20.811Z,8.88
2022-12-04T00:48:47.485Z,9.07
2022-12-04T00:51:17.047Z,9.07
2022-12-04T00:53:44.232Z,8.40
2022-12-04T00:56:14.311Z,9.07
2022-12-04T00:58:41.735Z,8.93
2022-12-04T01:01:16.981Z,8.38
2022-12-04T01:03:43.692Z,8.73
2022-12-04T01:06:22.226Z,8.77
2022-12-04T01:08:50.896Z,8.65
2022-12-04T01:11:18.332Z,8.70
2022-12-04T01:13:45.799Z,9.05
2022-12-04T01:16:24.151Z,7.95
2022-12-04T01:18:51.403Z,8.37
2022-12-04T01:21:19.033Z,8.38
2022-12-04T01:23:45.781Z,8.75
2022-12-04T01:26:13.136Z,8.90
2022-12-04T01:28:40.226Z,8.43
2022-12-04T01:31:13.809Z,8.27
2022-12-04T01:33:41.348Z,8.32
2022-12-04T01:36:10.887Z,8.20
2022-12-04T01:38:38.672Z,8.70
2022-12-04T01:41:06.072Z,8.63
2022-12-04T01:43:34.667Z,8.07
2022-12-04T01:46:02.534Z,8.20
2022-12-04T01:48:33.737Z,8.70
2022-12-04T01:51:10.683Z,7.97
2022-12-04T01:53:40.197Z,8.98
2022-12-04T01:56:07.532Z,8.50
2022-12-04T01:58:41.210Z,8.40
2022-12-04T02:01:09.579Z,8.48
2022-12-04T02:03:37.791Z,8.02
2022-12-04T02:06:05.036Z,8.65
2022-12-04T02:08:32.259Z,8.30
2022-12-04T02:11:20.263Z,8.20
2022-12-04T02:14:18.444Z,8.20
2022-12-04T02:16:49.312Z,7.28
2022-12-04T02:19:38.048Z,8.20
2022-12-04T02:22:21.092Z,8.17
2022-12-04T02:25:06.527Z,7.80
2022-12-04T02:27:46.477Z,8.57
2022-12-04T02:30:14.122Z,7.43
2022-12-04T02:32:46.424Z,8.05
2022-12-04T02:35:28.808Z,7.80
2022-12-04T02:38:06.634Z,8.35
2022-12-04T02:40:45.674Z,8.23
2022-12-04T02:43:41.581Z,7.95
2022-12-04T02:46:17.532Z,7.88
2022-12-04T02:48:49.231Z,8.17
2022-12-04T02:51:19.595Z,7.63
2022-12-04T02:53:53.539Z,7.60
2022-12-04T02:56:26.025Z,8.00
2022-12-04T02:58:59.842Z,8.05
2022-12-04T03:04:20.078Z,8.30
2022-12-04T03:06:52.763Z,8.93
2022-12-04T03:09:28.104Z,8.90
2022-12-04T03:12:00.973Z,8.70
2022-12-04T03:14:39.204Z,8.60
2022-12-04T03:17:17.679Z,7.85
2022-12-04T03:19:51.313Z,8.88
2022-12-04T03:22:21.967Z,8.48
2022-12-04T03:24:52.738Z,9.07
2022-12-04T03:27:43.410Z,8.53
2022-12-04T03:30:22.129Z,9.00
2022-12-04T03:33:26.947Z,8.45
2022-12-04T03:36:02.719Z,8.27
2022-12-04T03:38:39.238Z,8.00
2022-12-04T03:41:18.531Z,8.33
2022-12-04T03:43:53.567Z,8.18
2022-12-04T03:46:36.676Z,9.38
2022-12-04T03:49:20.697Z,8.35
2022-12-04T03:52:02.555Z,8.30
2022-12-04T03:54:34.227Z,8.20
2022-12-04T03:57:06.825Z,7.93
2022-12-04T03:59:43.411Z,8.43
2022-12-04T04:02:15.534Z,8.70
2022-12-04T04:04:47.940Z,8.65
2022-12-04T04:07:35.552Z,8.20
2022-12-04T04:10:08.265Z,7.97
2022-12-04T04:12:42.344Z,8.60
2022-12-04T04:15:32.417Z,8.00
2022-12-04T04:18:20.128Z,8.45
2022-12-04T04:21:11.438Z,7.97
2022-12-04T04:24:01.360Z,8.07
2022-12-04T04:26:32.062Z,8.40
2022-12-04T04:28:58.635Z,8.05
2022-12-04T04:31:38.547Z,8.68
2022-12-04T04:34:23.362Z,8.60
2022-12-04T04:36:56.116Z,8.50
2022-12-04T04:39:37.003Z,8.35
2022-12-04T04:42:30.095Z,8.30
2022-12-04T04:45:34.985Z,8.30
2022-12-04T04:48:12.104Z,9.27
2022-12-04T04:50:39.318Z,7.80
2022-12-04T04:53:12.038Z,8.32
2022-12-04T04:55:39.391Z,8.35
2022-12-04T04:58:18.454Z,8.25
2022-12-04T05:00:48.892Z,8.20
2022-12-04T05:03:15.489Z,8.65
2022-12-04T05:05:42.091Z,8.68
2022-12-04T05:08:08.810Z,7.65
2022-12-04T05:10:35.465Z,8.60
2022-12-04T05:13:01.997Z,8.80
2022-12-04T05:15:28.621Z,7.75
2022-12-04T05:17:55.186Z,8.02
2022-12-04T05:20:21.771Z,8.40
2022-12-04T05:22:48.485Z,8.52
2022-12-04T05:25:15.100Z,8.60
2022-12-04T05:27:41.666Z,8.50
2022-12-04T05:30:09.910Z,8.38
2022-12-04T05:32:36.483Z,8.52
2022-12-04T05:35:09.249Z,8.55
2022-12-04T05:37:39.376Z,8.47
2022-12-04T05:40:07.334Z,7.80
2022-12-04T05:42:33.986Z,8.82
2022-12-04T05:45:00.562Z,8.48
2022-12-04T05:47:27.120Z,8.32
2022-12-04T05:49:53.870Z,8.47
2022-12-04T05:52:20.667Z,8.77
2022-12-04T05:54:47.239Z,8.13
2022-12-04T05:57:13.802Z,8.63
2022-12-04T05:59:40.427Z,8.98
2022-12-04T06:02:07.000Z,7.80
2022-12-04T06:04:33.774Z,8.38
2022-12-04T06:07:00.339Z,8.60
2022-12-04T06:09:26.957Z,8.43
2022-12-04T06:11:57.367Z,8.35
2022-12-04T06:14:24.238Z,8.50
2022-12-04T06:16:50.864Z,8.40
2022-12-04T06:19:19.275Z,8.65
2022-12-04T06:21:48.548Z,8.20
2022-12-04T06:24:20.670Z,8.55
2022-12-04T06:27:25.132Z,8.33
2022-12-04T06:29:34.253Z,8.57
2022-12-04T06:32:01.004Z,8.60
2022-12-04T06:34:27.687Z,8.98
2022-12-04T06:36:54.366Z,8.15
2022-12-04T06:39:21.066Z,8.20
2022-12-04T06:41:47.818Z,8.80
2022-12-04T06:44:15.756Z,8.65
2022-12-04T06:46:46.906Z,8.13
2022-12-04T06:49:14.409Z,8.50
2022-12-04T06:51:41.178Z,8.60
2022-12-04T06:54:10.788Z,8.10
2022-12-04T06:56:37.680Z,8.38
2022-12-04T06:59:05.358Z,8.38
2022-12-04T07:01:34.412Z,9.02
2022-12-04T07:04:03.912Z,8.50
2022-12-04T07:06:33.734Z,8.18
2022-12-04T07:09:11.938Z,8.88
2022-12-04T07:11:40.165Z,8.63
2022-12-04T07:14:07.284Z,9.63
2022-12-04T07:16:39.969Z,8.70
2022-12-04T07:19:09.285Z,8.63
2022-12-04T07:21:35.905Z,8.90
2022-12-04T07:24:02.552Z,8.88
2022-12-04T07:26:32.980Z,8.52
2022-12-04T07:28:59.958Z,8.83
2022-12-04T07:31:28.533Z,8.20
2022-12-04T07:33:56.132Z,8.65
2022-12-04T07:36:24.840Z,8.15
2022-12-04T07:38:51.903Z,9.20
2022-12-04T07:41:19.276Z,8.40
2022-12-04T07:43:46.269Z,8.73
2022-12-04T07:46:16.265Z,8.75
2022-12-04T07:48:43.588Z,8.65
2022-12-04T07:51:14.395Z,8.18
2022-12-04T07:53:42.043Z,8.33
2022-12-04T07:56:10.137Z,9.55
2022-12-04T07:58:37.133Z,8.52
2022-12-04T08:01:09.088Z,8.23
2022-12-04T08:03:35.886Z,9.23
2022-12-04T08:06:03.921Z,8.40
2022-12-04T08:08:30.766Z,8.27
2022-12-04T08:10:57.920Z,8.55
2022-12-04T08:13:24.605Z,8.50
2022-12-04T08:15:51.435Z,8.55
2022-12-04T08:18:18.243Z,8.37
2022-12-04T08:20:45.347Z,9.10
2022-12-04T08:23:11.925Z,8.48
2022-12-04T08:25:40.356Z,8.32
2022-12-04T08:28:07.610Z,8.65
2022-12-04T08:30:35.717Z,8.67
2022-12-04T08:33:02.967Z,8.18
2022-12-04T08:35:29.582Z,8.20
2022-12-04T08:37:56.215Z,8.15
2022-12-04T08:40:23.367Z,8.38
2022-12-04T08:42:50.035Z,8.97
2022-12-04T08:45:16.707Z,7.75
2022-12-04T08:47:45.841Z,8.80
2022-12-04T08:50:16.215Z,9.07
2022-12-04T08:52:42.864Z,9.27
2022-12-04T08:55:09.809Z,9.20
2022-12-04T08:57:37.771Z,8.25
2022-12-04T09:00:05.332Z,9.00
2022-12-04T09:02:31.901Z,8.32
2022-12-04T09:04:58.579Z,8.57
2022-12-04T09:07:25.201Z,8.40
2022-12-04T09:09:51.761Z,9.07
2022-12-04T09:12:19.076Z,8.55
2022-12-04T09:14:45.736Z,8.05
2022-12-04T09:17:12.305Z,9.20
2022-12-04T09:19:39.022Z,8.83
2022-12-04T09:22:05.568Z,8.68
2022-12-04T09:24:32.142Z,8.50
2022-12-04T09:26:58.738Z,8.15
2022-12-04T09:29:26.253Z,8.95
2022-12-04T09:31:52.874Z,8.40
2022-12-04T09:34:19.498Z,8.40
2022-12-04T09:36:46.321Z,8.50
2022-12-04T09:39:12.875Z,8.35
2022-12-04T09:42:31.029Z,8.77
2022-12-04T09:45:17.676Z,8.90
2022-12-04T09:47:47.474Z,8.57
2022-12-04T09:50:29.372Z,9.32
2022-12-04T09:53:08.971Z,9.45
2022-12-04T09:55:54.666Z,8.65
2022-12-04T09:58:25.204Z,9.37
2022-12-04T10:00:53.497Z,9.20
2022-12-04T10:03:25.106Z,9.52
2022-12-04T10:06:04.826Z,8.93
2022-12-04T10:08:38.494Z,8.73
2022-12-04T10:11:32.751Z,9.13
2022-12-04T10:13:59.546Z,9.15
2022-12-04T10:17:02.776Z,9.48
2022-12-04T10:19:32.759Z,9.25
2022-12-04T10:22:22.943Z,9.27
2022-12-04T10:25:20.832Z,9.13
2022-12-04T10:27:50.932Z,8.70
2022-12-04T10:30:26.466Z,9.18
2022-12-04T10:33:25.569Z,9.35
2022-12-04T10:35:53.997Z,9.18
2022-12-04T10:38:42.679Z,9.07
2022-12-04T10:41:29.041Z,8.95
2022-12-04T10:43:56.018Z,8.93
2022-12-04T10:46:25.640Z,8.80
2022-12-04T10:49:02.589Z,9.25
2022-12-04T10:51:40.511Z,9.30
2022-12-04T10:54:35.809Z,8.88
2022-12-04T10:57:05.418Z,9.05
2022-12-04T10:59:32.115Z,9.20
2022-12-04T11:02:15.699Z,9.18
2022-12-04T11:04:43.378Z,8.60
2022-12-04T11:07:23.321Z,8.40
2022-12-04T11:10:05.768Z,9.73
2022-12-04T11:12:32.767Z,9.63
2022-12-04T11:15:04.082Z,9.20
2022-12-04T11:17:30.637Z,8.70
2022-12-04T11:20:33.387Z,8.93
2022-12-04T11:23:00.393Z,8.65
2022-12-04T11:25:30.911Z,8.85
2022-12-04T11:28:01.210Z,8.77
2022-12-04T11:30:38.630Z,9.13
2022-12-04T11:33:16.531Z,8.70
2022-12-04T11:35:43.278Z,8.32
2022-12-04T11:38:17.726Z,8.52
2022-12-04T11:41:03.803Z,8.27
2022-12-04T11:43:33.610Z,8.60
2022-12-04T11:46:06.828Z,9.23
2022-12-04T11:48:43.804Z,9.18
2022-12-04T11:51:50.057Z,8.20
2022-12-04T11:54:39.879Z,8.68
2022-12-04T11:57:26.853Z,8.87
2022-12-04T11:59:59.786Z,8.57
2022-12-04T12:02:41.729Z,8.90
2022-12-04T12:05:25.225Z,8.73
2022-12-04T12:08:17.031Z,8.68
2022-12-04T12:11:01.410Z,8.67
2022-12-04T12:13:34.063Z,8.48
2022-12-04T12:16:17.760Z,8.68
2022-12-04T12:19:08.807Z,7.93
2022-12-04T12:22:13.234Z,8.30
2022-12-04T12:25:16.637Z,7.83
2022-12-04T12:28:01.705Z,8.23
2022-12-04T12:30:40.460Z,8.77
2022-12-04T12:33:24.917Z,8.00
2022-12-04T12:36:08.513Z,7.93
2022-12-04T12:38:46.146Z,8.57
2022-12-04T12:41:17.104Z,8.05
2022-12-04T12:44:04.551Z,8.60
2022-12-04T12:46:53.466Z,8.40
2022-12-04T12:49:30.044Z,7.85
2022-12-04T12:52:17.352Z,8.50
2022-12-04T12:55:14.317Z,8.05
2022-12-04T12:57:50.045Z,8.18
2022-12-04T13:00:18.181Z,8.25
2022-12-04T13:02:53.862Z,8.18
2022-12-04T13:05:37.554Z,8.10
2022-12-04T13:08:10.805Z,8.05
2022-12-04T13:11:03.161Z,8.43
2022-12-04T13:13:42.954Z,8.13
2022-12-04T13:16:26.690Z,8.65
2022-12-04T13:19:06.298Z,7.83
2022-12-04T13:21:39.917Z,8.60
2022-12-04T13:24:28.216Z,7.93
2022-12-04T13:27:07.626Z,7.95
2022-12-04T13:30:05.577Z,8.80
2022-12-04T13:32:51.072Z,7.90
2022-12-04T13:35:45.023Z,7.68
2022-12-04T13:38:30.161Z,8.60
2022-12-04T13:41:03.822Z,7.82
2022-12-04T13:43:42.539Z,8.82
2022-12-04T13:46:30.265Z,8.17
2022-12-04T13:49:28.947Z,8.43
2022-12-04T13:51:57.636Z,8.57
2022-12-04T13:54:26.477Z,8.38
2022-12-04T13:56:56.299Z,8.65
2022-12-04T13:59:29.498Z,8.60
2022-12-04T14:02:03.510Z,8.85
2022-12-04T14:04:33.075Z,7.70
2022-12-04T14:07:03.657Z,8.73
2022-12-04T14:09:40.940Z,8.23
2022-12-04T14:12:12.788Z,8.23
2022-12-04T14:15:04.286Z,8.38
2022-12-04T14:17:37.422Z,8.25
2022-12-04T14:20:25.953Z,8.68
2022-12-04T14:22:53.136Z,8.68
2022-12-04T14:25:19.572Z,7.80
2022-12-04T14:27:51.970Z,9.30
2022-12-04T14:30:23.210Z,8.55
2022-12-04T14:32:53.979Z,8.30
2022-12-04T14:35:23.918Z,8.90
2022-12-04T14:37:55.530Z,8.13
2022-12-04T14:40:28.905Z,8.20
2022-12-04T14:42:56.036Z,8.90
2022-12-04T14:45:38.859Z,8.20
2022-12-04T14:48:22.635Z,8.35
2022-12-04T14:51:16.901Z,7.37
2022-12-04T14:53:57.322Z,8.40
2022-12-04T14:56:52.144Z,8.75
2022-12-04T14:59:21.512Z,8.45
2022-12-04T15:01:50.514Z,8.65
2022-12-04T15:04:23.223Z,9.13
2022-12-04T15:06:55.507Z,8.27
2022-12-04T15:09:45.985Z,9.32
2022-12-04T15:12:36.971Z,7.90
2022-12-04T15:15:25.723Z,8.50
2022-12-04T15:18:10.356Z,8.53
2022-12-04T15:20:49.135Z,8.13
2022-12-04T15:23:18.920Z,8.23
2022-12-04T15:26:17.672Z,8.40
2022-12-04T15:28:53.507Z,8.60
2022-12-04T15:31:30.534Z,8.13
2022-12-04T15:34:01.747Z,8.13
2022-12-04T15:37:02.243Z,8.50
2022-12-04T15:39:32.443Z,8.48
2022-12-04T15:42:26.479Z,8.52
2022-12-04T15:45:08.262Z,8.30
2022-12-04T15:47:40.763Z,8.80
2022-12-04T15:50:28.417Z,8.27
2022-12-04T15:53:20.696Z,8.38
2022-12-04T15:55:53.794Z,8.65
2022-12-04T15:58:26.699Z,8.00
2022-12-04T16:00:56.797Z,7.88
2022-12-04T16:03:25.689Z,8.80
2022-12-04T16:06:22.642Z,8.73
2022-12-04T16:09:13.954Z,8.63
2022-12-04T16:11:41.844Z,9.37
2022-12-04T16:14:08.401Z,8.98
2022-12-04T16:16:42.276Z,9.40
2022-12-04T16:19:16.558Z,8.82
2022-12-04T16:21:43.451Z,8.60
2022-12-04T16:24:12.215Z,8.20
2022-12-04T16:26:38.795Z,9.15
2022-12-04T16:29:05.815Z,8.73
2022-12-04T16:31:32.682Z,8.60
2022-12-04T16:33:59.414Z,9.05
2022-12-04T16:36:26.184Z,8.40
2022-12-04T16:38:52.903Z,8.60
2022-12-04T16:41:20.278Z,8.23
2022-12-04T16:43:55.174Z,8.80
2022-12-04T16:46:24.971Z,8.60
2022-12-04T16:48:52.411Z,7.83
2022-12-04T16:51:22.900Z,8.93
2022-12-04T16:53:51.349Z,9.40
2022-12-04T16:56:19.006Z,8.50
2022-12-04T16:58:45.807Z,9.02
2022-12-04T17:01:25.355Z,8.03
2022-12-04T17:03:52.618Z,8.98
2022-12-04T17:06:19.304Z,8.80
2022-12-04T17:08:46.284Z,8.57
2022-12-04T17:11:14.515Z,8.68
2022-12-04T17:13:41.643Z,8.73
2022-12-04T17:16:08.786Z,8.80
2022-12-04T17:18:35.637Z,9.18
2022-12-04T17:21:09.816Z,9.23
2022-12-04T17:23:37.198Z,9.02
2022-12-04T17:26:06.544Z,9.23
2022-12-04T17:28:33.884Z,8.68
2022-12-04T17:31:02.549Z,8.65
2022-12-04T17:33:29.150Z,9.57
2022-12-04T17:35:56.023Z,9.20
2022-12-04T17:38:22.913Z,9.07
2022-12-04T17:41:00.266Z,9.25
2022-12-04T17:43:29.281Z,8.73
2022-12-04T17:45:56.920Z,9.95
2022-12-04T17:48:24.395Z,8.95
2022-12-04T17:50:51.284Z,8.70
2022-12-04T17:53:17.906Z,8.98
2022-12-04T17:55:44.596Z,9.20
2022-12-04T17:58:11.141Z,8.95
2022-12-04T18:00:38.002Z,9.60
2022-12-04T18:03:04.676Z,8.70
2022-12-04T18:05:31.313Z,8.93
2022-12-04T18:07:58.287Z,8.70
2022-12-04T18:10:24.954Z,8.65
2022-12-04T18:12:51.570Z,9.45
2022-12-04T18:15:18.209Z,9.27
2022-12-04T18:17:44.856Z,9.55
2022-12-04T18:20:11.757Z,8.98
2022-12-04T18:22:38.306Z,9.15
2022-12-04T18:25:05.387Z,9.05
2022-12-04T18:27:32.184Z,8.87
2022-12-04T18:30:00.766Z,8.07
2022-12-04T18:32:27.366Z,9.52
2022-12-04T18:34:53.965Z,8.93
2022-12-04T18:37:20.559Z,8.98
2022-12-04T18:39:49.529Z,8.83
2022-12-04T18:42:16.309Z,9.40
2022-12-04T18:44:42.943Z,9.15
2022-12-04T18:47:09.550Z,8.95
2022-12-04T18:49:36.168Z,9.68
2022-12-04T18:52:02.890Z,9.40
2022-12-04T18:54:29.432Z,9.88
2022-12-04T18:56:56.016Z,10.07
2022-12-04T18:59:25.477Z,9.52
2022-12-04T19:01:54.386Z,9.32
2022-12-04T19:04:24.071Z,8.90
2022-12-04T19:06:54.265Z,8.93
2022-12-04T19:09:40.925Z,8.85
2022-12-04T19:12:12.120Z,9.43
2022-12-04T19:14:39.769Z,9.15
2022-12-04T19:17:06.489Z,8.87
2022-12-04T19:19:33.123Z,9.13
2022-12-04T19:22:01.229Z,9.00
2022-12-04T19:24:27.842Z,9.30
2022-12-04T19:26:54.802Z,8.93
2022-12-04T19:29:21.457Z,8.63
2022-12-04T19:31:48.218Z,9.30
2022-12-04T19:34:15.023Z,8.95
2022-12-04T19:36:42.600Z,9.07
2022-12-04T19:39:10.136Z,8.85
2022-12-04T19:41:38.585Z,8.87
2022-12-04T19:44:20.095Z,9.00
2022-12-04T19:46:52.035Z,8.60
2022-12-04T19:49:18.981Z,9.32
2022-12-04T19:51:46.919Z,8.65
2022-12-04T19:54:14.196Z,9.43
2022-12-04T19:56:41.873Z,8.98
2022-12-04T19:59:08.792Z,9.55
2022-12-04T20:01:35.968Z,9.57
2022-12-04T20:04:05.704Z,9.15
2022-12-04T20:06:37.978Z,8.40
2022-12-04T20:09:10.223Z,9.77
2022-12-04T20:11:37.506Z,8.73
2022-12-04T20:14:05.734Z,9.65
2022-12-04T20:16:33.757Z,8.85
2022-12-04T20:19:02.038Z,8.57
2022-12-04T20:21:30.651Z,9.65
2022-12-04T20:24:00.210Z,9.70
2022-12-04T20:26:30.546Z,8.50
2022-12-04T20:28:58.548Z,9.05
2022-12-04T20:31:28.472Z,9.00
2022-12-04T20:33:57.193Z,9.00
2022-12-04T20:36:28.886Z,9.85
2022-12-04T20:38:58.666Z,8.98
2022-12-04T20:41:29.741Z,9.77
2022-12-04T20:44:00.004Z,9.00
2022-12-04T20:46:31.653Z,8.98
2022-12-04T20:49:00.829Z,9.20
2022-12-04T20:51:30.059Z,8.88
2022-12-04T20:53:58.163Z,8.73
2022-12-04T20:56:27.007Z,9.00
2022-12-04T20:58:55.004Z,8.50
2022-12-04T21:01:21.714Z,9.23
2022-12-04T21:03:48.421Z,9.05
2022-12-04T21:06:17.891Z,8.93
2022-12-04T21:08:53.578Z,9.33
2022-12-04T21:11:27.683Z,9.18
2022-12-04T21:14:14.763Z,8.82
2022-12-04T21:16:41.807Z,9.05
2022-12-04T21:19:09.956Z,8.40
2022-12-04T21:21:37.079Z,8.53
2022-12-04T21:24:05.290Z,8.50
2022-12-04T21:26:33.707Z,8.77
2022-12-04T21:29:01.782Z,8.13
2022-12-04T21:31:29.648Z,8.65
2022-12-04T21:34:00.189Z,8.50
2022-12-04T21:36:28.316Z,8.13
2022-12-04T21:38:55.633Z,8.05
2022-12-04T21:41:41.155Z,8.60
2022-12-04T21:44:10.407Z,8.05
2022-12-04T21:46:37.211Z,7.83
2022-12-04T21:49:04.430Z,7.82
2022-12-04T21:51:56.413Z,7.90
2022-12-04T21:54:18.894Z,8.02
2022-12-04T21:56:45.468Z,7.70
2022-12-04T21:59:12.550Z,7.40
2022-12-04T22:01:39.761Z,7.30
2022-12-04T22:04:06.389Z,7.53
2022-12-04T22:06:36.149Z,7.38
2022-12-04T22:09:06.225Z,7.75
2022-12-04T22:11:33.040Z,6.97
2022-12-04T22:13:59.629Z,7.32
2022-12-04T22:16:30.222Z,7.03
2022-12-04T22:18:58.327Z,7.80
2022-12-04T22:21:26.392Z,8.20
2022-12-04T22:24:03.106Z,7.67
2022-12-04T22:26:31.259Z,7.40
2022-12-04T22:28:58.158Z,7.05
2022-12-04T22:31:27.344Z,7.72
2022-12-04T22:33:55.609Z,7.18
2022-12-04T22:36:27.762Z,8.07
2022-12-04T22:39:11.049Z,7.35
2022-12-04T22:41:38.315Z,7.70
2022-12-04T22:44:05.863Z,7.07
2022-12-04T22:46:32.979Z,7.53
2022-12-04T22:49:00.433Z,7.10
2022-12-04T22:51:27.811Z,6.88
2022-12-04T22:53:57.287Z,7.10
2022-12-04T22:56:23.814Z,6.72
2022-12-04T22:58:51.300Z,7.35
2022-12-04T23:01:23.405Z,7.00
2022-12-04T23:03:50.567Z,6.55
2022-12-04T23:06:19.369Z,6.90
2022-12-04T23:08:47.182Z,7.07
2022-12-04T23:11:17.440Z,6.85
2022-12-04T23:13:49.170Z,6.97
2022-12-04T23:16:20.003Z,7.00
2022-12-04T23:18:47.277Z,7.43
2022-12-04T23:21:14.943Z,6.75
2022-12-04T23:23:43.293Z,7.03
2022-12-04T23:26:16.090Z,7.00
2022-12-04T23:28:43.058Z,6.40
2022-12-04T23:31:11.110Z,6.47
2022-12-04T23:33:39.830Z,6.88
2022-12-04T23:36:08.113Z,6.80
2022-12-04T23:38:36.901Z,6.87
2022-12-04T23:41:18.250Z,7.35
2022-12-04T23:43:45.778Z,7.15
2022-12-04T23:46:16.009Z,6.55
2022-12-04T23:48:44.455Z,6.25
2022-12-04T23:51:13.508Z,6.47
2022-12-04T23:53:40.800Z,6.82
2022-12-04T23:56:13.334Z,6.70
2022-12-04T23:58:40.799Z,6.85
